createdAt,value
2023-04-14T00:00:04.981Z,1.15
2023-04-14T00:02:40.333Z,1.20
2023-04-14T00:05:08.629Z,1.05
2023-04-14T00:07:36.241Z,1.05
2023-04-14T00:10:03.982Z,1.20
2023-04-14T00:12:31.671Z,1.23
2023-04-14T00:14:59.193Z,1.08
2023-04-14T00:17:26.976Z,1.40
2023-04-14T00:19:54.400Z,1.20
2023-04-14T00:22:22.448Z,1.00
2023-04-14T00:24:51.081Z,1.20
2023-04-14T00:27:18.584Z,1.40
2023-04-14T00:29:46.143Z,0.93
2023-04-14T00:32:13.735Z,1.20
2023-04-14T00:34:41.177Z,1.35
2023-04-14T00:37:08.608Z,1.17
2023-04-14T00:39:36.675Z,1.20
2023-04-14T00:42:04.844Z,1.42
2023-04-14T00:44:32.401Z,0.95
2023-04-14T00:47:02.208Z,1.25
2023-04-14T00:49:30.294Z,1.17
2023-04-14T00:51:58.478Z,1.20
2023-04-14T00:54:28.294Z,1.33
2023-04-14T00:56:58.247Z,1.42
2023-04-14T00:59:26.108Z,1.30
2023-04-14T01:01:54.448Z,1.50
2023-04-14T01:04:22.942Z,1.60
2023-04-14T01:06:50.655Z,1.00
2023-04-14T01:09:18.209Z,1.10
2023-04-14T01:12:16.337Z,1.17
2023-04-14T01:15:03.811Z,1.30
2023-04-14T01:17:46.201Z,1.10
2023-04-14T01:20:45.198Z,1.48
2023-04-14T01:23:21.698Z,1.15
2023-04-14T01:26:10.719Z,1.30
2023-04-14T01:29:04.497Z,1.40
2023-04-14T01:31:38.801Z,1.10
2023-04-14T01:34:48.253Z,1.27
2023-04-14T01:37:19.553Z,1.27
2023-04-14T01:39:53.320Z,1.55
2023-04-14T01:42:30.743Z,1.45
2023-04-14T01:45:18.183Z,1.52
2023-04-14T01:47:50.973Z,1.30
2023-04-14T01:50:21.178Z,1.13
2023-04-14T01:52:54.541Z,1.33
2023-04-14T01:55:27.255Z,1.17
2023-04-14T01:57:58.216Z,1.30
2023-04-14T02:00:27.190Z,1.33
2023-04-14T02:02:56.181Z,1.30
2023-04-14T02:05:25.716Z,1.27
2023-04-14T02:07:55.092Z,1.23
2023-04-14T02:10:24.839Z,1.23
2023-04-14T02:12:58.537Z,1.10
2023-04-14T02:15:26.508Z,1.50
2023-04-14T02:17:57.359Z,0.70
2023-04-14T02:20:28.398Z,1.70
2023-04-14T02:22:56.025Z,1.00
2023-04-14T02:25:26.926Z,1.10
2023-04-14T02:28:01.387Z,1.17
2023-04-14T02:30:33.022Z,1.20
2023-04-14T02:33:10.685Z,1.40
2023-04-14T02:36:02.430Z,1.35
2023-04-14T02:38:30.173Z,1.30
2023-04-14T02:40:59.742Z,1.25
2023-04-14T02:43:32.106Z,1.20
2023-04-14T02:46:05.771Z,1.48
2023-04-14T02:48:35.242Z,1.25
2023-04-14T02:51:05.905Z,1.50
2023-04-14T02:53:34.924Z,1.23
2023-04-14T02:56:16.159Z,1.60
2023-04-14T02:58:47.061Z,0.90
2023-04-14T03:01:16.910Z,1.10
2023-04-14T03:03:44.671Z,1.20
2023-04-14T03:06:16.249Z,1.25
2023-04-14T03:08:44.792Z,1.30
2023-04-14T03:11:17.156Z,0.77
2023-04-14T03:13:47.026Z,1.20
2023-04-14T03:16:16.187Z,1.20
2023-04-14T03:18:44.949Z,1.30
2023-04-14T03:21:16.903Z,0.93
2023-04-14T03:23:46.742Z,1.00
2023-04-14T03:26:21.572Z,1.00
2023-04-14T03:28:51.232Z,1.33
2023-04-14T03:31:21.522Z,1.10
2023-04-14T03:33:57.583Z,1.08
2023-04-14T03:36:33.313Z,0.88
2023-04-14T03:39:05.187Z,1.08
2023-04-14T03:41:39.030Z,1.00
2023-04-14T03:44:15.883Z,1.00
2023-04-14T03:46:47.077Z,1.02
2023-04-14T03:49:17.854Z,1.10
2023-04-14T03:51:49.961Z,1.20
2023-04-14T03:54:19.660Z,1.20
2023-04-14T03:56:49.367Z,1.00
2023-04-14T03:59:19.657Z,1.00
2023-04-14T04:01:48.353Z,1.05
2023-04-14T04:04:17.101Z,0.90
2023-04-14T04:06:45.112Z,1.15
2023-04-14T04:09:18.387Z,0.88
2023-04-14T04:11:48.068Z,1.00
2023-04-14T04:14:18.175Z,0.93
2023-04-14T04:16:50.004Z,1.00
2023-04-14T04:19:22.359Z,1.15
2023-04-14T04:21:52.047Z,1.08
2023-04-14T04:24:23.611Z,1.10
2023-04-14T04:26:54.567Z,0.90
2023-04-14T04:29:23.842Z,1.00
2023-04-14T04:31:54.489Z,0.80
2023-04-14T04:34:26.346Z,0.63
2023-04-14T04:36:55.173Z,0.95
2023-04-14T04:39:23.120Z,0.82
2023-04-14T04:41:52.241Z,0.80
2023-04-14T04:44:20.603Z,0.82
2023-04-14T04:46:55.647Z,1.00
2023-04-14T04:49:28.803Z,0.80
2023-04-14T04:52:02.101Z,1.00
2023-04-14T04:54:29.897Z,0.90
2023-04-14T04:56:58.993Z,0.90
2023-04-14T04:59:26.886Z,1.00
2023-04-14T05:01:54.558Z,0.68
2023-04-14T05:04:22.277Z,0.80
2023-04-14T05:06:50.071Z,1.00
2023-04-14T05:09:17.549Z,0.90
2023-04-14T05:11:45.023Z,0.80
2023-04-14T05:14:12.544Z,0.90
2023-04-14T05:16:40.001Z,0.82
2023-04-14T05:19:07.477Z,0.82
2023-04-14T05:21:34.906Z,1.00
2023-04-14T05:24:02.711Z,0.95
2023-04-14T05:26:51.676Z,1.02
2023-04-14T05:29:17.603Z,0.80
2023-04-14T05:31:45.123Z,1.10
2023-04-14T05:34:12.565Z,1.08
2023-04-14T05:36:39.991Z,1.08
2023-04-14T05:39:07.572Z,1.10
2023-04-14T05:41:34.968Z,0.88
2023-04-14T05:44:04.206Z,0.77
2023-04-14T05:46:32.439Z,0.63
2023-04-14T05:49:01.529Z,0.70
2023-04-14T05:51:29.218Z,0.98
2023-04-14T05:53:56.758Z,0.70
2023-04-14T05:56:24.244Z,0.93
2023-04-14T05:58:54.628Z,1.00
2023-04-14T06:01:22.171Z,1.15
2023-04-14T06:03:49.971Z,1.00
2023-04-14T06:06:17.906Z,1.10
2023-04-14T06:08:46.454Z,1.00
2023-04-14T06:11:14.699Z,1.10
2023-04-14T06:13:42.348Z,0.98
2023-04-14T06:16:09.867Z,1.00
2023-04-14T06:18:37.392Z,1.00
2023-04-14T06:21:05.053Z,0.77
2023-04-14T06:23:32.940Z,0.95
2023-04-14T06:26:00.592Z,0.90
2023-04-14T06:28:28.352Z,1.10
2023-04-14T06:30:55.879Z,1.00
2023-04-14T06:33:23.498Z,1.00
2023-04-14T06:35:51.014Z,0.98
2023-04-14T06:38:18.580Z,0.95
2023-04-14T06:40:46.131Z,1.05
2023-04-14T06:43:15.237Z,1.17
2023-04-14T06:45:42.788Z,0.90
2023-04-14T06:48:11.737Z,1.00
2023-04-14T06:50:39.423Z,0.90
2023-04-14T06:53:07.430Z,1.10
2023-04-14T06:55:36.436Z,0.90
2023-04-14T06:58:04.144Z,1.20
2023-04-14T07:00:31.922Z,0.80
2023-04-14T07:02:59.772Z,1.02
2023-04-14T07:05:27.428Z,0.93
2023-04-14T07:07:54.954Z,0.98
2023-04-14T07:10:22.453Z,1.05
2023-04-14T07:12:49.920Z,0.98
2023-04-14T07:15:17.561Z,0.93
2023-04-14T07:17:45.122Z,1.10
2023-04-14T07:20:12.948Z,0.90
2023-04-14T07:22:41.005Z,0.90
2023-04-14T07:25:08.804Z,1.10
2023-04-14T07:27:36.392Z,1.00
2023-04-14T07:30:04.206Z,0.95
2023-04-14T07:32:31.949Z,1.00
2023-04-14T07:34:59.851Z,1.20
2023-04-14T07:37:27.330Z,1.35
2023-04-14T07:39:54.800Z,1.20
2023-04-14T07:42:22.230Z,0.90
2023-04-14T07:44:49.700Z,1.10
2023-04-14T07:47:17.479Z,1.10
2023-04-14T07:49:45.001Z,1.20
2023-04-14T07:52:12.859Z,1.10
2023-04-14T07:54:40.389Z,1.20
2023-04-14T07:57:10.310Z,1.10
2023-04-14T07:59:38.586Z,1.10
2023-04-14T08:02:06.358Z,1.23
2023-04-14T08:04:33.976Z,1.02
2023-04-14T08:07:01.788Z,1.20
2023-04-14T08:09:29.348Z,1.35
2023-04-14T08:11:59.735Z,1.15
2023-04-14T08:14:27.249Z,1.20
2023-04-14T08:16:54.705Z,1.30
2023-04-14T08:19:22.214Z,1.02
2023-04-14T08:21:49.667Z,1.00
2023-04-14T08:24:17.136Z,1.00
2023-04-14T08:26:44.612Z,1.08
2023-04-14T08:29:12.056Z,1.00
2023-04-14T08:31:39.616Z,0.80
2023-04-14T08:34:07.204Z,1.02
2023-04-14T08:36:34.823Z,1.40
2023-04-14T08:39:02.639Z,1.05
2023-04-14T08:41:34.678Z,0.90
2023-04-14T08:44:02.181Z,1.20
2023-04-14T08:46:31.587Z,1.08
2023-04-14T08:49:07.936Z,1.05
2023-04-14T08:51:39.681Z,0.90
2023-04-14T08:54:10.513Z,0.90
2023-04-14T08:56:42.156Z,0.90
2023-04-14T08:59:11.598Z,1.02
2023-04-14T09:01:39.751Z,0.90
2023-04-14T09:04:08.814Z,0.77
2023-04-14T09:06:36.822Z,1.10
2023-04-14T09:09:09.132Z,0.90
2023-04-14T09:11:37.919Z,0.90
2023-04-14T09:14:06.376Z,1.10
2023-04-14T09:16:34.089Z,1.20
2023-04-14T09:19:06.671Z,1.05
2023-04-14T09:21:52.709Z,0.95
2023-04-14T09:24:32.459Z,0.90
2023-04-14T09:27:07.813Z,0.95
2023-04-14T09:29:36.801Z,1.08
2023-04-14T09:32:06.517Z,0.90
2023-04-14T09:34:34.085Z,0.90
2023-04-14T09:37:10.110Z,0.90
2023-04-14T09:39:49.767Z,0.90
2023-04-14T09:42:17.922Z,0.98
2023-04-14T09:44:59.403Z,0.65
2023-04-14T09:47:27.027Z,1.05
2023-04-14T09:50:00.447Z,0.85
2023-04-14T09:52:42.171Z,0.85
2023-04-14T09:55:14.260Z,0.80
2023-04-14T09:57:43.330Z,0.90
2023-04-14T10:00:18.216Z,1.02
2023-04-14T10:02:58.338Z,0.80
2023-04-14T10:05:32.157Z,0.80
2023-04-14T10:08:06.954Z,0.90
2023-04-14T10:10:34.585Z,1.00
2023-04-14T10:13:02.456Z,0.93
2023-04-14T10:15:30.052Z,0.90
2023-04-14T10:17:57.664Z,0.88
2023-04-14T10:20:25.619Z,0.85
2023-04-14T10:22:55.132Z,0.95
2023-04-14T10:25:24.405Z,0.80
2023-04-14T10:27:52.446Z,1.00
2023-04-14T10:30:20.013Z,0.90
2023-04-14T10:32:48.278Z,1.00
2023-04-14T10:35:18.793Z,1.10
2023-04-14T10:37:53.058Z,1.05
2023-04-14T10:40:22.857Z,1.10
2023-04-14T10:42:55.329Z,0.70
2023-04-14T10:45:26.976Z,0.80
2023-04-14T10:47:56.606Z,0.82
2023-04-14T10:50:25.699Z,1.00
2023-04-14T10:52:57.099Z,1.02
2023-04-14T10:55:28.491Z,1.10
2023-04-14T10:58:09.638Z,0.73
2023-04-14T11:00:40.106Z,1.05
2023-04-14T11:03:12.178Z,1.05
2023-04-14T11:05:44.891Z,0.75
2023-04-14T11:08:17.656Z,1.25
2023-04-14T11:10:52.042Z,1.23
2023-04-14T11:13:19.800Z,1.02
2023-04-14T11:15:51.587Z,1.08
2023-04-14T11:18:45.377Z,1.10
2023-04-14T11:21:16.841Z,1.02
2023-04-14T11:23:44.833Z,1.20
2023-04-14T11:26:16.342Z,1.20
2023-04-14T11:28:48.025Z,1.05
2023-04-14T11:31:17.432Z,0.75
2023-04-14T11:33:45.283Z,1.15
2023-04-14T11:36:13.833Z,1.17
2023-04-14T11:38:42.906Z,1.15
2023-04-14T11:41:11.298Z,1.15
2023-04-14T11:43:39.084Z,1.30
2023-04-14T11:46:08.955Z,1.27
2023-04-14T11:48:37.500Z,1.50
2023-04-14T11:51:05.161Z,1.10
2023-04-14T11:53:33.656Z,1.15
2023-04-14T11:56:01.637Z,1.27
2023-04-14T11:58:29.661Z,1.30
2023-04-14T12:00:59.744Z,1.13
2023-04-14T12:03:36.014Z,1.52
2023-04-14T12:06:04.075Z,1.50
2023-04-14T12:08:32.484Z,1.60
2023-04-14T12:11:15.436Z,1.40
2023-04-14T12:13:44.526Z,2.00
2023-04-14T12:16:12.791Z,1.58
2023-04-14T12:18:40.982Z,1.70
2023-04-14T12:21:11.693Z,1.60
2023-04-14T12:23:40.948Z,1.25
2023-04-14T12:26:15.130Z,1.13
2023-04-14T12:28:43.089Z,1.20
2023-04-14T12:31:11.744Z,1.25
2023-04-14T12:33:39.583Z,1.80
2023-04-14T12:36:14.320Z,2.45
2023-04-14T12:38:42.045Z,2.00
2023-04-14T12:41:11.126Z,1.23
2023-04-14T12:43:41.640Z,1.40
2023-04-14T12:46:09.410Z,1.33
2023-04-14T12:48:48.864Z,0.93
2023-04-14T12:51:18.874Z,0.95
2023-04-14T12:53:48.226Z,0.90
2023-04-14T12:56:17.945Z,1.05
2023-04-14T12:58:47.366Z,0.98
2023-04-14T13:01:19.721Z,0.82
2023-04-14T13:03:52.488Z,1.10
2023-04-14T13:06:22.981Z,1.15
2023-04-14T13:08:52.410Z,1.13
2023-04-14T13:11:21.564Z,1.17
2023-04-14T13:13:49.246Z,1.20
2023-04-14T13:16:18.084Z,1.10
2023-04-14T13:18:47.583Z,1.10
2023-04-14T13:21:15.589Z,1.10
2023-04-14T13:23:43.213Z,1.30
2023-04-14T13:26:11.143Z,1.10
2023-04-14T13:28:38.647Z,1.10
2023-04-14T13:31:06.271Z,2.35
2023-04-14T13:33:33.780Z,1.27
2023-04-14T13:36:04.513Z,1.10
2023-04-14T13:38:32.077Z,1.08
2023-04-14T13:40:59.899Z,1.08
2023-04-14T13:43:27.667Z,0.93
2023-04-14T13:45:58.848Z,0.95
2023-04-14T13:48:30.735Z,1.05
2023-04-14T13:50:59.784Z,0.95
2023-04-14T13:53:27.487Z,1.00
2023-04-14T13:55:55.283Z,1.20
2023-04-14T13:58:23.256Z,1.05
2023-04-14T14:00:50.965Z,0.77
2023-04-14T14:03:18.448Z,1.00
2023-04-14T14:05:46.168Z,1.20
2023-04-14T14:08:16.604Z,1.10
2023-04-14T14:10:44.145Z,1.30
2023-04-14T14:13:11.670Z,1.00
2023-04-14T14:16:37.152Z,0.93
2023-04-14T14:19:08.367Z,1.65
2023-04-14T14:21:36.132Z,1.50
2023-04-14T14:24:04.215Z,1.10
2023-04-14T14:26:32.086Z,1.00
2023-04-14T14:28:59.522Z,1.20
2023-04-14T14:31:27.090Z,1.10
2023-04-14T14:33:54.569Z,1.10
2023-04-14T14:36:22.022Z,1.10
2023-04-14T14:38:49.452Z,1.30
2023-04-14T14:41:17.000Z,1.08
2023-04-14T14:43:44.523Z,1.30
2023-04-14T14:46:12.065Z,1.15
2023-04-14T14:48:39.613Z,1.55
2023-04-14T14:51:07.218Z,2.00
2023-04-14T14:53:34.959Z,2.60
2023-04-14T14:56:02.572Z,1.05
2023-04-14T14:58:30.079Z,1.88
2023-04-14T15:00:57.501Z,1.05
2023-04-14T15:03:25.194Z,1.23
2023-04-14T15:05:52.953Z,1.17
2023-04-14T15:08:20.514Z,1.23
2023-04-14T15:10:47.920Z,1.10
2023-04-14T15:13:15.419Z,1.30
2023-04-14T15:15:42.962Z,1.30
2023-04-14T15:18:10.900Z,1.50
2023-04-14T15:20:38.442Z,1.70
2023-04-14T15:23:07.346Z,1.55
2023-04-14T15:25:34.778Z,1.45
2023-04-14T15:28:02.341Z,1.50
2023-04-14T15:30:29.900Z,1.20
2023-04-14T15:32:58.488Z,1.25
2023-04-14T15:35:26.715Z,1.10
2023-04-14T15:37:54.246Z,1.13
2023-04-14T15:40:21.729Z,1.20
2023-04-14T15:42:49.193Z,1.50
2023-04-14T15:45:16.701Z,1.48
2023-04-14T15:47:44.145Z,1.45
2023-04-14T15:50:13.058Z,2.28
2023-04-14T15:52:46.268Z,1.60
2023-04-14T16:04:18.441Z,1.90
2023-04-14T16:06:47.301Z,1.90
2023-04-14T16:09:15.234Z,2.00
2023-04-14T16:11:42.714Z,1.75
2023-04-14T16:14:10.323Z,1.77
2023-04-14T16:16:38.828Z,1.70
2023-04-14T16:19:06.726Z,1.88
2023-04-14T16:21:34.201Z,1.58
2023-04-14T16:24:02.035Z,1.60
2023-04-14T16:26:30.661Z,1.95
2023-04-14T16:28:58.146Z,1.85
2023-04-14T16:31:25.656Z,2.10
2023-04-14T16:33:53.110Z,1.80
2023-04-14T16:36:22.067Z,2.30
2023-04-14T16:38:51.187Z,2.08
2023-04-14T16:41:18.658Z,2.00
2023-04-14T16:43:46.224Z,1.83
2023-04-14T16:46:13.933Z,1.90
2023-04-14T16:48:41.892Z,1.95
2023-04-14T16:51:11.311Z,1.77
2023-04-14T16:53:39.290Z,1.90
2023-04-14T16:56:09.042Z,1.90
2023-04-14T16:58:38.375Z,2.25
2023-04-14T17:01:07.052Z,2.22
2023-04-14T17:03:34.856Z,1.55
2023-04-14T17:06:02.915Z,1.95
2023-04-14T17:08:30.540Z,2.50
2023-04-14T17:10:58.316Z,1.88
2023-04-14T17:13:27.236Z,2.20
2023-04-14T17:16:02.385Z,2.60
2023-04-14T17:18:35.787Z,2.53
2023-04-14T17:21:03.696Z,2.40
2023-04-14T17:23:31.202Z,2.20
2023-04-14T17:26:00.036Z,2.78
2023-04-14T17:28:27.794Z,2.55
2023-04-14T17:30:56.032Z,2.63
2023-04-14T17:33:27.625Z,2.50
2023-04-14T17:35:55.970Z,2.65
2023-04-14T17:38:23.822Z,2.08
2023-04-14T17:40:52.142Z,2.38
2023-04-14T17:43:19.618Z,2.20
2023-04-14T17:45:50.706Z,2.22
2023-04-14T17:48:18.232Z,2.08
2023-04-14T17:50:46.719Z,2.00
2023-04-14T17:53:16.528Z,2.17
2023-04-14T17:55:45.184Z,2.20
2023-04-14T17:58:12.735Z,1.98
2023-04-14T18:00:40.570Z,2.10
2023-04-14T18:03:08.346Z,2.08
2023-04-14T18:05:36.009Z,2.10
2023-04-14T18:08:03.968Z,2.35
2023-04-14T18:10:31.680Z,1.98
2023-04-14T18:12:59.882Z,2.33
2023-04-14T18:15:27.413Z,2.22
2023-04-14T18:17:55.906Z,1.80
2023-04-14T18:20:26.830Z,2.28
2023-04-14T18:23:02.269Z,2.05
2023-04-14T18:28:03.629Z,2.10
2023-04-14T18:30:31.690Z,2.13
2023-04-14T18:33:01.035Z,2.13
2023-04-14T18:35:29.490Z,2.00
2023-04-14T18:37:56.941Z,2.70
2023-04-14T18:40:26.485Z,2.30
2023-04-14T18:42:55.522Z,2.30
2023-04-14T18:45:23.108Z,2.63
2023-04-14T18:47:51.110Z,1.95
2023-04-14T18:50:20.569Z,2.10
2023-04-14T18:52:48.136Z,2.13
2023-04-14T18:55:15.791Z,2.33
2023-04-14T18:57:43.265Z,2.42
2023-04-14T19:00:13.629Z,2.92
2023-04-14T19:02:41.533Z,2.35
2023-04-14T19:05:10.297Z,1.77
2023-04-14T19:07:37.912Z,2.08
2023-04-14T19:10:05.932Z,1.70
2023-04-14T19:12:33.609Z,1.60
2023-04-14T19:15:02.850Z,1.50
2023-04-14T19:17:34.542Z,1.35
2023-04-14T19:20:02.196Z,1.70
2023-04-14T19:22:30.684Z,1.40
2023-04-14T19:24:58.074Z,1.60
2023-04-14T19:27:25.652Z,1.33
2023-04-14T19:29:53.052Z,1.90
2023-04-14T19:32:20.699Z,2.10
2023-04-14T19:34:48.459Z,2.20
2023-04-14T19:37:16.139Z,3.00
2023-04-14T19:39:43.504Z,2.60
2023-04-14T19:42:11.060Z,2.70
2023-04-14T19:44:38.519Z,2.55
2023-04-14T19:47:06.368Z,2.88
2023-04-14T19:49:34.119Z,2.65
2023-04-14T19:52:01.949Z,2.03
2023-04-14T19:54:29.737Z,1.70
2023-04-14T19:56:57.367Z,1.70
2023-04-14T19:59:25.025Z,1.48
2023-04-14T20:01:52.482Z,1.60
2023-04-14T20:04:20.994Z,1.90
2023-04-14T20:06:48.642Z,1.30
2023-04-14T20:09:16.247Z,1.27
2023-04-14T20:11:43.910Z,1.40
2023-04-14T20:14:11.586Z,1.42
2023-04-14T20:16:39.165Z,1.30
2023-04-14T20:19:06.648Z,1.15
2023-04-14T20:21:34.148Z,1.40
2023-04-14T20:24:02.216Z,1.40
2023-04-14T20:26:29.749Z,1.30
2023-04-14T20:28:57.323Z,1.40
2023-04-14T20:31:25.823Z,1.30
2023-04-14T20:33:53.251Z,1.30
2023-04-14T20:36:20.958Z,1.40
2023-04-14T20:38:48.551Z,1.60
2023-04-14T20:41:15.975Z,1.40
2023-04-14T20:43:43.892Z,1.30
2023-04-14T20:46:11.521Z,1.17
2023-04-14T20:48:39.191Z,1.40
2023-04-14T20:51:06.809Z,1.48
2023-04-14T20:53:35.341Z,1.50
2023-04-14T20:56:02.781Z,1.42
2023-04-14T20:58:30.277Z,1.33
2023-04-14T21:00:57.804Z,1.50
2023-04-14T21:03:25.618Z,1.30
2023-04-14T21:05:53.807Z,1.60
2023-04-14T21:08:21.632Z,1.60
2023-04-14T21:11:15.595Z,1.33
2023-04-14T21:15:28.150Z,1.77
2023-04-14T21:16:26.138Z,1.55
2023-04-14T21:18:53.625Z,1.73
2023-04-14T21:21:21.720Z,1.67
2023-04-14T21:23:49.231Z,1.60
2023-04-14T21:26:17.051Z,1.70
2023-04-14T21:28:44.573Z,1.77
2023-04-14T21:31:12.090Z,1.92
2023-04-14T21:33:41.991Z,1.77
2023-04-14T21:36:12.198Z,1.40
2023-04-14T21:38:39.922Z,1.70
2023-04-14T21:41:10.535Z,1.40
2023-04-14T21:43:41.022Z,1.70
2023-04-14T21:46:08.760Z,1.73
2023-04-14T21:48:36.260Z,1.70
2023-04-14T21:51:03.914Z,1.48
2023-04-14T21:53:32.270Z,1.70
2023-04-14T21:56:09.959Z,1.60
2023-04-14T21:58:39.852Z,1.85
2023-04-14T22:01:08.150Z,1.50
2023-04-14T22:03:37.864Z,1.50
2023-04-14T22:06:05.873Z,1.33
2023-04-14T22:08:33.348Z,1.70
2023-04-14T22:11:00.775Z,1.67
2023-04-14T22:13:28.809Z,1.60
2023-04-14T22:15:56.935Z,1.40
2023-04-14T22:18:24.461Z,1.80
2023-04-14T22:20:51.979Z,1.63
2023-04-14T22:23:19.567Z,1.60
2023-04-14T22:25:48.216Z,2.40
2023-04-14T22:28:15.777Z,1.65
2023-04-14T22:30:43.439Z,1.83
2023-04-14T22:33:10.927Z,1.65
2023-04-14T22:35:39.220Z,1.42
2023-04-14T22:38:07.276Z,1.70
2023-04-14T22:40:34.673Z,1.52
2023-04-14T22:43:08.790Z,1.70
2023-04-14T22:45:37.932Z,1.73
2023-04-14T22:48:07.319Z,1.60
2023-04-14T22:50:36.943Z,1.55
2023-04-14T22:53:05.675Z,1.60
2023-04-14T22:55:33.711Z,2.05
2023-04-14T22:58:01.252Z,1.90
2023-04-14T23:00:28.904Z,1.80
2023-04-14T23:02:56.608Z,1.30
2023-04-14T23:05:24.625Z,1.80
2023-04-14T23:07:51.983Z,1.65
2023-04-14T23:10:19.455Z,1.65
2023-04-14T23:12:47.205Z,2.17
2023-04-14T23:15:14.838Z,1.50
2023-04-14T23:17:42.348Z,1.67
2023-04-14T23:20:10.187Z,1.73
2023-04-14T23:22:37.895Z,1.70
2023-04-14T23:25:05.942Z,1.80
2023-04-14T23:27:33.316Z,1.85
2023-04-14T23:30:00.869Z,2.38
2023-04-14T23:32:28.312Z,2.00
2023-04-14T23:34:55.894Z,1.70
2023-04-14T23:37:24.131Z,2.10
2023-04-14T23:39:51.744Z,1.75
2023-04-14T23:42:19.210Z,1.90
2023-04-14T23:44:46.925Z,1.63
2023-04-14T23:47:14.938Z,1.90
2023-04-14T23:49:42.354Z,1.90
2023-04-14T23:52:09.863Z,1.90
2023-04-14T23:54:37.688Z,1.70
2023-04-14T23:57:05.193Z,1.73
2023-04-14T23:59:32.977Z,2.40
